sensor_id;sensor_type;location;lat;lon;timestamp;pressure;altitude;pressure_sealevel;temperature;humidity
57126;BME280;43000;50.770;6.110;2022-08-30T00:00:32;99892.66;;;17.73;54.42
57126;BME280;43000;50.770;6.110;2022-08-30T00:03:17;99895.66;;;17.69;54.25
57126;BME280;43000;50.770;6.110;2022-08-30T00:05:45;99902.34;;;17.63;54.15
57126;BME280;43000;50.770;6.110;2022-08-30T00:08:12;99899.16;;;17.58;54.30
57126;BME280;43000;50.770;6.110;2022-08-30T00:10:40;99897.44;;;17.57;54.39
57126;BME280;43000;50.770;6.110;2022-08-30T00:13:08;99901.94;;;17.56;54.29
57126;BME280;43000;50.770;6.110;2022-08-30T00:15:36;99903.25;;;17.51;54.17
57126;BME280;43000;50.770;6.110;2022-08-30T00:18:03;99902.13;;;17.42;55.08
57126;BME280;43000;50.770;6.110;2022-08-30T00:20:32;99903.94;;;17.30;55.98
57126;BME280;43000;50.770;6.110;2022-08-30T00:22:59;99897.72;;;17.19;56.36
57126;BME280;43000;50.770;6.110;2022-08-30T00:25:26;99889.41;;;17.10;56.12
57126;BME280;43000;50.770;6.110;2022-08-30T00:27:54;99896.47;;;17.11;55.92
57126;BME280;43000;50.770;6.110;2022-08-30T00:30:21;99893.81;;;17.11;55.81
57126;BME280;43000;50.770;6.110;2022-08-30T00:32:48;99902.22;;;17.05;56.17
57126;BME280;43000;50.770;6.110;2022-08-30T00:35:16;99896.53;;;16.99;56.20
57126;BME280;43000;50.770;6.110;2022-08-30T00:37:46;99900.38;;;16.94;57.14
57126;BME280;43000;50.770;6.110;2022-08-30T00:40:13;99902.75;;;16.86;56.70
57126;BME280;43000;50.770;6.110;2022-08-30T00:42:41;99914.91;;;16.78;57.04
57126;BME280;43000;50.770;6.110;2022-08-30T00:45:11;99912.78;;;16.70;57.52
57126;BME280;43000;50.770;6.110;2022-08-30T00:47:39;99902.38;;;16.67;57.63
57126;BME280;43000;50.770;6.110;2022-08-30T00:50:07;99904.84;;;16.57;57.84
57126;BME280;43000;50.770;6.110;2022-08-30T00:52:35;99902.94;;;16.46;58.19
57126;BME280;43000;50.770;6.110;2022-08-30T00:55:06;99907.22;;;16.36;57.91
57126;BME280;43000;50.770;6.110;2022-08-30T00:57:33;99908.75;;;16.27;58.94
57126;BME280;43000;50.770;6.110;2022-08-30T01:00:00;99914.63;;;16.20;59.22
57126;BME280;43000;50.770;6.110;2022-08-30T01:02:27;99908.03;;;16.13;59.18
57126;BME280;43000;50.770;6.110;2022-08-30T01:04:58;99904.84;;;16.07;59.04
57126;BME280;43000;50.770;6.110;2022-08-30T01:07:26;99908.44;;;16.06;59.15
57126;BME280;43000;50.770;6.110;2022-08-30T01:09:53;99908.34;;;16.08;59.12
57126;BME280;43000;50.770;6.110;2022-08-30T01:12:21;99907.59;;;16.06;59.38
57126;BME280;43000;50.770;6.110;2022-08-30T01:14:48;99905.47;;;15.98;59.83
57126;BME280;43000;50.770;6.110;2022-08-30T01:17:15;99906.53;;;15.96;59.69
57126;BME280;43000;50.770;6.110;2022-08-30T01:19:46;99907.47;;;15.95;59.92
57126;BME280;43000;50.770;6.110;2022-08-30T01:22:20;99908.78;;;15.89;59.98
57126;BME280;43000;50.770;6.110;2022-08-30T01:24:52;99909.94;;;15.85;59.99
57126;BME280;43000;50.770;6.110;2022-08-30T01:27:21;99910.59;;;15.76;60.75
57126;BME280;43000;50.770;6.110;2022-08-30T01:29:49;99911.00;;;15.70;60.64
57126;BME280;43000;50.770;6.110;2022-08-30T01:32:17;99915.16;;;15.74;60.25
57126;BME280;43000;50.770;6.110;2022-08-30T01:34:45;99915.25;;;15.72;60.76
57126;BME280;43000;50.770;6.110;2022-08-30T01:37:14;99903.00;;;15.70;60.42
57126;BME280;43000;50.770;6.110;2022-08-30T01:39:44;99914.91;;;15.64;60.84
57126;BME280;43000;50.770;6.110;2022-08-30T01:42:12;99907.13;;;15.61;60.91
57126;BME280;43000;50.770;6.110;2022-08-30T01:44:39;99906.91;;;15.64;61.00
57126;BME280;43000;50.770;6.110;2022-08-30T01:47:06;99904.25;;;15.64;60.64
57126;BME280;43000;50.770;6.110;2022-08-30T01:49:32;99908.19;;;15.58;61.04
57126;BME280;43000;50.770;6.110;2022-08-30T01:51:59;99914.88;;;15.51;61.33
57126;BME280;43000;50.770;6.110;2022-08-30T01:54:25;99911.47;;;15.49;61.30
57126;BME280;43000;50.770;6.110;2022-08-30T01:56:52;99918.78;;;15.45;61.21
57126;BME280;43000;50.770;6.110;2022-08-30T01:59:20;99918.38;;;15.39;61.53
57126;BME280;43000;50.770;6.110;2022-08-30T02:01:46;99912.31;;;15.37;61.89
57126;BME280;43000;50.770;6.110;2022-08-30T02:04:13;99907.38;;;15.31;61.85
57126;BME280;43000;50.770;6.110;2022-08-30T02:06:41;99902.78;;;15.20;62.29
57126;BME280;43000;50.770;6.110;2022-08-30T02:09:09;99905.13;;;15.12;62.62
57126;BME280;43000;50.770;6.110;2022-08-30T02:11:35;99904.56;;;15.07;62.73
57126;BME280;43000;50.770;6.110;2022-08-30T02:14:03;99909.75;;;15.08;62.78
57126;BME280;43000;50.770;6.110;2022-08-30T02:16:31;99905.31;;;15.09;62.60
57126;BME280;43000;50.770;6.110;2022-08-30T02:18:58;99904.47;;;15.08;62.50
57126;BME280;43000;50.770;6.110;2022-08-30T02:21:25;99901.03;;;15.06;62.67
57126;BME280;43000;50.770;6.110;2022-08-30T02:23:52;99895.94;;;15.03;62.69
57126;BME280;43000;50.770;6.110;2022-08-30T02:26:19;99893.19;;;15.05;62.59
57126;BME280;43000;50.770;6.110;2022-08-30T02:28:46;99895.09;;;15.02;62.80
57126;BME280;43000;50.770;6.110;2022-08-30T02:31:13;99898.91;;;14.98;62.93
57126;BME280;43000;50.770;6.110;2022-08-30T02:33:41;99888.16;;;14.87;63.29
57126;BME280;43000;50.770;6.110;2022-08-30T02:36:08;99892.69;;;14.85;63.57
57126;BME280;43000;50.770;6.110;2022-08-30T02:38:35;99884.06;;;14.81;63.55
57126;BME280;43000;50.770;6.110;2022-08-30T02:41:02;99891.94;;;14.83;63.40
57126;BME280;43000;50.770;6.110;2022-08-30T02:43:28;99882.16;;;14.84;63.29
57126;BME280;43000;50.770;6.110;2022-08-30T02:45:55;99883.91;;;14.85;63.44
57126;BME280;43000;50.770;6.110;2022-08-30T02:48:21;99877.91;;;14.81;63.36
57126;BME280;43000;50.770;6.110;2022-08-30T02:50:50;99880.88;;;14.76;63.47
57126;BME280;43000;50.770;6.110;2022-08-30T02:53:18;99869.53;;;14.74;63.75
57126;BME280;43000;50.770;6.110;2022-08-30T02:55:46;99870.31;;;14.62;64.14
57126;BME280;43000;50.770;6.110;2022-08-30T02:58:13;99872.59;;;14.54;64.64
57126;BME280;43000;50.770;6.110;2022-08-30T03:00:40;99875.50;;;14.49;64.83
57126;BME280;43000;50.770;6.110;2022-08-30T03:03:07;99874.03;;;14.45;64.67
57126;BME280;43000;50.770;6.110;2022-08-30T03:05:34;99874.88;;;14.46;64.59
57126;BME280;43000;50.770;6.110;2022-08-30T03:08:02;99879.75;;;14.52;64.58
57126;BME280;43000;50.770;6.110;2022-08-30T03:10:29;99878.84;;;14.53;64.54
57126;BME280;43000;50.770;6.110;2022-08-30T03:12:56;99871.94;;;14.50;64.36
57126;BME280;43000;50.770;6.110;2022-08-30T03:15:23;99878.56;;;14.43;65.04
57126;BME280;43000;50.770;6.110;2022-08-30T03:17:50;99877.91;;;14.39;65.43
57126;BME280;43000;50.770;6.110;2022-08-30T03:20:17;99875.91;;;14.43;65.09
57126;BME280;43000;50.770;6.110;2022-08-30T03:22:44;99875.72;;;14.46;64.54
57126;BME280;43000;50.770;6.110;2022-08-30T03:25:12;99873.91;;;14.47;64.75
57126;BME280;43000;50.770;6.110;2022-08-30T03:27:39;99869.94;;;14.39;65.21
57126;BME280;43000;50.770;6.110;2022-08-30T03:30:07;99871.94;;;14.36;65.51
57126;BME280;43000;50.770;6.110;2022-08-30T03:32:34;99873.19;;;14.30;65.63
57126;BME280;43000;50.770;6.110;2022-08-30T03:35:01;99865.41;;;14.27;65.81
57126;BME280;43000;50.770;6.110;2022-08-30T03:37:28;99863.53;;;14.29;65.88
57126;BME280;43000;50.770;6.110;2022-08-30T03:39:54;99860.38;;;14.37;65.63
57126;BME280;43000;50.770;6.110;2022-08-30T03:42:23;99869.00;;;14.41;65.43
57126;BME280;43000;50.770;6.110;2022-08-30T03:44:49;99866.34;;;14.41;65.23
57126;BME280;43000;50.770;6.110;2022-08-30T03:47:16;99862.75;;;14.42;65.33
57126;BME280;43000;50.770;6.110;2022-08-30T03:49:42;99877.81;;;14.41;65.48
57126;BME280;43000;50.770;6.110;2022-08-30T03:52:09;99874.69;;;14.34;65.68
57126;BME280;43000;50.770;6.110;2022-08-30T03:54:35;99873.00;;;14.33;65.76
57126;BME280;43000;50.770;6.110;2022-08-30T03:57:03;99876.59;;;14.32;66.03
57126;BME280;43000;50.770;6.110;2022-08-30T03:59:31;99871.31;;;14.32;65.92
57126;BME280;43000;50.770;6.110;2022-08-30T04:01:58;99873.47;;;14.26;66.36
57126;BME280;43000;50.770;6.110;2022-08-30T04:04:24;99871.69;;;14.26;66.48
57126;BME280;43000;50.770;6.110;2022-08-30T04:06:51;99870.91;;;14.24;66.48
57126;BME280;43000;50.770;6.110;2022-08-30T04:09:18;99875.47;;;14.22;66.38
57126;BME280;43000;50.770;6.110;2022-08-30T04:11:45;99871.88;;;14.23;66.80
57126;BME280;43000;50.770;6.110;2022-08-30T04:14:11;99877.25;;;14.22;66.69
57126;BME280;43000;50.770;6.110;2022-08-30T04:16:39;99872.63;;;14.25;66.91
57126;BME280;43000;50.770;6.110;2022-08-30T04:19:06;99875.66;;;14.33;66.28
57126;BME280;43000;50.770;6.110;2022-08-30T04:21:32;99874.69;;;14.34;66.34
57126;BME280;43000;50.770;6.110;2022-08-30T04:23:59;99880.19;;;14.31;66.67
57126;BME280;43000;50.770;6.110;2022-08-30T04:26:26;99877.47;;;14.33;66.54
57126;BME280;43000;50.770;6.110;2022-08-30T04:28:53;99877.16;;;14.37;66.47
57126;BME280;43000;50.770;6.110;2022-08-30T04:31:19;99878.94;;;14.37;66.43
57126;BME280;43000;50.770;6.110;2022-08-30T04:33:47;99876.22;;;14.38;66.45
57126;BME280;43000;50.770;6.110;2022-08-30T04:36:14;99885.84;;;14.39;66.19
57126;BME280;43000;50.770;6.110;2022-08-30T04:38:41;99885.69;;;14.43;66.54
57126;BME280;43000;50.770;6.110;2022-08-30T04:41:09;99885.13;;;14.37;66.63
57126;BME280;43000;50.770;6.110;2022-08-30T04:43:36;99884.16;;;14.38;66.59
57126;BME280;43000;50.770;6.110;2022-08-30T04:46:04;99885.97;;;14.38;67.04
57126;BME280;43000;50.770;6.110;2022-08-30T04:48:31;99884.38;;;14.35;67.03
57126;BME280;43000;50.770;6.110;2022-08-30T04:51:02;99889.66;;;14.35;67.15
57126;BME280;43000;50.770;6.110;2022-08-30T04:53:30;99890.22;;;14.41;67.20
57126;BME280;43000;50.770;6.110;2022-08-30T04:55:56;99896.09;;;14.46;67.04
57126;BME280;43000;50.770;6.110;2022-08-30T04:58:23;99889.81;;;14.47;66.87
57126;BME280;43000;50.770;6.110;2022-08-30T05:00:50;99903.00;;;14.48;67.14
57126;BME280;43000;50.770;6.110;2022-08-30T05:03:16;99897.59;;;14.50;67.02
57126;BME280;43000;50.770;6.110;2022-08-30T05:05:46;99897.41;;;14.53;67.03
57126;BME280;43000;50.770;6.110;2022-08-30T05:08:16;99897.59;;;14.64;66.79
57126;BME280;43000;50.770;6.110;2022-08-30T05:10:44;99906.22;;;14.68;66.51
57126;BME280;43000;50.770;6.110;2022-08-30T05:13:11;99904.50;;;14.67;66.84
57126;BME280;43000;50.770;6.110;2022-08-30T05:15:38;99907.25;;;14.65;66.79
57126;BME280;43000;50.770;6.110;2022-08-30T05:18:05;99913.22;;;14.69;66.82
57126;BME280;43000;50.770;6.110;2022-08-30T05:20:33;99911.31;;;14.71;66.98
57126;BME280;43000;50.770;6.110;2022-08-30T05:22:59;99907.72;;;14.72;66.98
57126;BME280;43000;50.770;6.110;2022-08-30T05:25:30;99908.47;;;14.74;66.87
57126;BME280;43000;50.770;6.110;2022-08-30T05:27:57;99912.34;;;14.82;66.69
57126;BME280;43000;50.770;6.110;2022-08-30T05:30:25;99913.66;;;14.90;66.52
57126;BME280;43000;50.770;6.110;2022-08-30T05:32:53;99915.88;;;14.96;66.69
57126;BME280;43000;50.770;6.110;2022-08-30T05:35:20;99912.72;;;15.03;66.29
57126;BME280;43000;50.770;6.110;2022-08-30T05:37:47;99914.03;;;15.11;65.88
57126;BME280;43000;50.770;6.110;2022-08-30T05:40:13;99908.63;;;15.12;66.11
57126;BME280;43000;50.770;6.110;2022-08-30T05:42:43;99904.91;;;15.15;66.25
57126;BME280;43000;50.770;6.110;2022-08-30T05:45:11;99907.66;;;15.13;66.51
57126;BME280;43000;50.770;6.110;2022-08-30T05:47:38;99908.06;;;15.07;66.78
57126;BME280;43000;50.770;6.110;2022-08-30T05:50:06;99908.38;;;15.02;67.26
57126;BME280;43000;50.770;6.110;2022-08-30T05:52:33;99908.38;;;15.02;67.18
57126;BME280;43000;50.770;6.110;2022-08-30T05:55:00;99907.41;;;15.03;67.12
57126;BME280;43000;50.770;6.110;2022-08-30T05:57:30;99902.47;;;15.12;67.06
57126;BME280;43000;50.770;6.110;2022-08-30T05:59:59;99914.47;;;15.17;66.97
57126;BME280;43000;50.770;6.110;2022-08-30T06:02:25;99916.91;;;15.20;66.86
57126;BME280;43000;50.770;6.110;2022-08-30T06:04:52;99918.44;;;15.24;66.98
57126;BME280;43000;50.770;6.110;2022-08-30T06:07:19;99907.50;;;15.29;66.68
57126;BME280;43000;50.770;6.110;2022-08-30T06:09:45;99910.78;;;15.33;66.75
57126;BME280;43000;50.770;6.110;2022-08-30T06:12:12;99907.75;;;15.39;66.29
57126;BME280;43000;50.770;6.110;2022-08-30T06:14:38;99919.13;;;15.41;66.64
57126;BME280;43000;50.770;6.110;2022-08-30T06:17:06;99916.03;;;15.47;66.66
57126;BME280;43000;50.770;6.110;2022-08-30T06:19:33;99914.56;;;15.56;66.43
57126;BME280;43000;50.770;6.110;2022-08-30T06:21:59;99915.00;;;15.62;66.39
57126;BME280;43000;50.770;6.110;2022-08-30T06:24:26;99916.22;;;15.71;66.23
57126;BME280;43000;50.770;6.110;2022-08-30T06:26:53;99908.56;;;15.79;66.20
57126;BME280;43000;50.770;6.110;2022-08-30T06:29:20;99911.34;;;15.91;65.76
57126;BME280;43000;50.770;6.110;2022-08-30T06:31:47;99907.91;;;16.01;65.47
57126;BME280;43000;50.770;6.110;2022-08-30T06:34:16;99906.97;;;16.15;64.71
57126;BME280;43000;50.770;6.110;2022-08-30T06:36:42;99907.69;;;16.30;64.64
57126;BME280;43000;50.770;6.110;2022-08-30T06:39:09;99904.91;;;16.44;63.29
57126;BME280;43000;50.770;6.110;2022-08-30T06:41:37;99913.44;;;16.61;62.72
57126;BME280;43000;50.770;6.110;2022-08-30T06:44:05;99916.72;;;16.77;62.33
57126;BME280;43000;50.770;6.110;2022-08-30T06:46:33;99919.03;;;16.94;61.72
57126;BME280;43000;50.770;6.110;2022-08-30T06:49:00;99917.31;;;17.17;60.78
57126;BME280;43000;50.770;6.110;2022-08-30T06:51:32;99915.81;;;17.37;60.68
57126;BME280;43000;50.770;6.110;2022-08-30T06:54:00;99914.06;;;17.60;59.43
57126;BME280;43000;50.770;6.110;2022-08-30T06:56:27;99914.25;;;17.81;56.84
57126;BME280;43000;50.770;6.110;2022-08-30T06:58:53;99907.50;;;18.00;55.33
57126;BME280;43000;50.770;6.110;2022-08-30T07:01:24;99905.22;;;18.18;55.24
57126;BME280;43000;50.770;6.110;2022-08-30T07:03:51;99905.56;;;18.36;54.19
57126;BME280;43000;50.770;6.110;2022-08-30T07:06:20;99910.78;;;18.49;53.77
57126;BME280;43000;50.770;6.110;2022-08-30T07:08:49;99906.88;;;18.64;53.08
57126;BME280;43000;50.770;6.110;2022-08-30T07:11:24;99911.00;;;18.79;53.06
57126;BME280;43000;50.770;6.110;2022-08-30T07:13:51;99916.66;;;18.97;52.98
57126;BME280;43000;50.770;6.110;2022-08-30T07:16:18;99909.78;;;19.16;52.36
57126;BME280;43000;50.770;6.110;2022-08-30T07:18:44;99915.56;;;19.32;52.25
57126;BME280;43000;50.770;6.110;2022-08-30T07:21:23;99909.66;;;19.49;51.30
57126;BME280;43000;50.770;6.110;2022-08-30T07:23:52;99906.63;;;19.64;50.80
57126;BME280;43000;50.770;6.110;2022-08-30T07:26:21;99913.41;;;19.79;50.49
57126;BME280;43000;50.770;6.110;2022-08-30T07:28:48;99916.97;;;19.89;50.04
57126;BME280;43000;50.770;6.110;2022-08-30T07:31:17;99922.78;;;19.94;49.76
57126;BME280;43000;50.770;6.110;2022-08-30T07:33:44;99923.16;;;20.11;50.40
57126;BME280;43000;50.770;6.110;2022-08-30T07:36:11;99918.41;;;20.24;49.26
57126;BME280;43000;50.770;6.110;2022-08-30T07:38:38;99921.81;;;20.26;49.21
57126;BME280;43000;50.770;6.110;2022-08-30T07:41:06;99908.31;;;20.37;49.21
57126;BME280;43000;50.770;6.110;2022-08-30T07:43:34;99906.72;;;20.56;48.81
57126;BME280;43000;50.770;6.110;2022-08-30T07:46:03;99913.81;;;20.76;49.10
57126;BME280;43000;50.770;6.110;2022-08-30T07:48:30;99916.09;;;20.91;47.76
57126;BME280;43000;50.770;6.110;2022-08-30T07:50:57;99920.47;;;21.01;47.11
57126;BME280;43000;50.770;6.110;2022-08-30T07:53:24;99918.94;;;20.99;47.20
57126;BME280;43000;50.770;6.110;2022-08-30T07:55:51;99918.66;;;21.02;46.76
57126;BME280;43000;50.770;6.110;2022-08-30T07:58:19;99924.56;;;20.96;47.18
57126;BME280;43000;50.770;6.110;2022-08-30T08:00:46;99918.94;;;21.09;47.16
57126;BME280;43000;50.770;6.110;2022-08-30T08:03:12;99920.06;;;21.16;47.23
57126;BME280;43000;50.770;6.110;2022-08-30T08:05:41;99923.75;;;21.15;47.18
57126;BME280;43000;50.770;6.110;2022-08-30T08:08:08;99924.47;;;21.07;46.80
57126;BME280;43000;50.770;6.110;2022-08-30T08:10:35;99926.03;;;21.19;46.79
57126;BME280;43000;50.770;6.110;2022-08-30T08:13:02;99923.94;;;21.42;46.53
57126;BME280;43000;50.770;6.110;2022-08-30T08:15:30;99919.25;;;21.54;46.22
57126;BME280;43000;50.770;6.110;2022-08-30T08:17:58;99922.50;;;21.58;46.67
57126;BME280;43000;50.770;6.110;2022-08-30T08:20:25;99918.25;;;21.75;46.29
57126;BME280;43000;50.770;6.110;2022-08-30T08:22:52;99929.09;;;21.83;45.79
57126;BME280;43000;50.770;6.110;2022-08-30T08:25:18;99925.72;;;21.81;45.76
57126;BME280;43000;50.770;6.110;2022-08-30T08:27:45;99932.22;;;21.78;45.87
57126;BME280;43000;50.770;6.110;2022-08-30T08:30:13;99928.00;;;21.76;46.23
57126;BME280;43000;50.770;6.110;2022-08-30T08:32:41;99929.38;;;21.80;45.62
57126;BME280;43000;50.770;6.110;2022-08-30T08:35:08;99921.72;;;21.95;45.65
57126;BME280;43000;50.770;6.110;2022-08-30T08:37:35;99926.38;;;21.93;45.64
57126;BME280;43000;50.770;6.110;2022-08-30T08:40:03;99922.44;;;21.97;45.54
57126;BME280;43000;50.770;6.110;2022-08-30T08:42:36;99918.44;;;22.11;45.71
57126;BME280;43000;50.770;6.110;2022-08-30T08:45:12;99921.81;;;22.22;45.27
57126;BME280;43000;50.770;6.110;2022-08-30T08:47:51;99922.78;;;22.31;45.02
57126;BME280;43000;50.770;6.110;2022-08-30T08:50:20;99914.41;;;22.34;44.98
57126;BME280;43000;50.770;6.110;2022-08-30T08:52:52;99918.41;;;22.30;44.74
57126;BME280;43000;50.770;6.110;2022-08-30T08:55:34;99912.72;;;22.33;44.73
57126;BME280;43000;50.770;6.110;2022-08-30T08:58:03;99919.00;;;22.51;45.10
57126;BME280;43000;50.770;6.110;2022-08-30T09:00:30;99915.81;;;22.66;44.32
57126;BME280;43000;50.770;6.110;2022-08-30T09:03:00;99915.88;;;22.74;43.65
57126;BME280;43000;50.770;6.110;2022-08-30T09:05:30;99914.16;;;22.83;43.89
57126;BME280;43000;50.770;6.110;2022-08-30T09:08:02;99920.16;;;22.94;43.40
57126;BME280;43000;50.770;6.110;2022-08-30T09:10:30;99912.81;;;22.97;43.46
57126;BME280;43000;50.770;6.110;2022-08-30T09:12:58;99918.53;;;23.11;43.63
57126;BME280;43000;50.770;6.110;2022-08-30T09:15:28;99912.06;;;23.22;43.00
57126;BME280;43000;50.770;6.110;2022-08-30T09:17:56;99917.50;;;23.30;42.73
57126;BME280;43000;50.770;6.110;2022-08-30T09:20:31;99916.50;;;23.49;42.14
57126;BME280;43000;50.770;6.110;2022-08-30T09:22:59;99921.06;;;23.93;41.20
57126;BME280;43000;50.770;6.110;2022-08-30T09:25:37;99908.97;;;24.66;39.52
57126;BME280;43000;50.770;6.110;2022-08-30T09:28:10;99922.13;;;25.44;37.96
57126;BME280;43000;50.770;6.110;2022-08-30T09:30:37;99912.41;;;26.23;36.47
57126;BME280;43000;50.770;6.110;2022-08-30T09:33:05;99918.94;;;26.85;35.40
57126;BME280;43000;50.770;6.110;2022-08-30T09:35:43;99919.19;;;27.29;34.24
57126;BME280;43000;50.770;6.110;2022-08-30T09:38:16;99920.16;;;27.97;33.62
57126;BME280;43000;50.770;6.110;2022-08-30T09:40:45;99915.88;;;28.47;32.63
57126;BME280;43000;50.770;6.110;2022-08-30T09:43:21;99910.03;;;28.80;32.45
57126;BME280;43000;50.770;6.110;2022-08-30T09:46:03;99914.47;;;29.03;31.19
57126;BME280;43000;50.770;6.110;2022-08-30T09:48:32;99913.53;;;28.30;32.21
57126;BME280;43000;50.770;6.110;2022-08-30T09:54:05;99909.47;;;27.96;33.03
57126;BME280;43000;50.770;6.110;2022-08-30T09:56:39;99914.09;;;28.25;32.36
57126;BME280;43000;50.770;6.110;2022-08-30T09:59:15;99902.09;;;28.64;31.26
57126;BME280;43000;50.770;6.110;2022-08-30T10:01:49;99892.66;;;28.96;31.32
57126;BME280;43000;50.770;6.110;2022-08-30T10:04:23;99901.34;;;29.06;30.61
57126;BME280;43000;50.770;6.110;2022-08-30T10:06:59;99899.13;;;29.60;30.22
57126;BME280;43000;50.770;6.110;2022-08-30T10:09:34;99905.31;;;29.68;30.21
57126;BME280;43000;50.770;6.110;2022-08-30T10:12:10;99891.47;;;29.91;29.52
57126;BME280;43000;50.770;6.110;2022-08-30T10:14:45;99889.81;;;30.25;28.85
57126;BME280;43000;50.770;6.110;2022-08-30T10:17:22;99888.03;;;31.00;27.69
57126;BME280;43000;50.770;6.110;2022-08-30T10:19:59;99890.41;;;30.62;27.73
57126;BME280;43000;50.770;6.110;2022-08-30T10:22:30;99892.06;;;30.63;27.70
57126;BME280;43000;50.770;6.110;2022-08-30T10:25:04;99883.88;;;30.50;28.13
57126;BME280;43000;50.770;6.110;2022-08-30T10:27:35;99882.31;;;30.82;28.01
57126;BME280;43000;50.770;6.110;2022-08-30T10:30:07;99872.75;;;31.13;27.48
57126;BME280;43000;50.770;6.110;2022-08-30T10:32:38;99877.41;;;30.57;27.36
57126;BME280;43000;50.770;6.110;2022-08-30T10:35:09;99888.03;;;30.11;27.73
57126;BME280;43000;50.770;6.110;2022-08-30T10:37:41;99885.28;;;30.04;28.13
57126;BME280;43000;50.770;6.110;2022-08-30T10:40:14;99875.31;;;29.83;28.07
57126;BME280;43000;50.770;6.110;2022-08-30T10:43:04;99883.78;;;28.66;29.52
57126;BME280;43000;50.770;6.110;2022-08-30T10:45:36;99880.16;;;27.99;30.31
57126;BME280;43000;50.770;6.110;2022-08-30T10:48:11;99881.09;;;28.21;30.25
57126;BME280;43000;50.770;6.110;2022-08-30T10:50:43;99869.47;;;28.27;30.03
57126;BME280;43000;50.770;6.110;2022-08-30T10:53:18;99876.97;;;27.96;30.41
57126;BME280;43000;50.770;6.110;2022-08-30T10:55:49;99871.78;;;27.71;30.69
57126;BME280;43000;50.770;6.110;2022-08-30T10:58:17;99869.53;;;27.60;31.85
57126;BME280;43000;50.770;6.110;2022-08-30T11:00:53;99871.13;;;27.54;31.26
57126;BME280;43000;50.770;6.110;2022-08-30T11:03:56;99868.50;;;27.61;31.38
57126;BME280;43000;50.770;6.110;2022-08-30T11:06:34;99864.03;;;27.68;30.78
57126;BME280;43000;50.770;6.110;2022-08-30T11:09:16;99869.63;;;27.52;30.95
57126;BME280;43000;50.770;6.110;2022-08-30T11:11:59;99871.25;;;27.38;31.08
57126;BME280;43000;50.770;6.110;2022-08-30T11:14:28;99864.16;;;27.37;31.44
57126;BME280;43000;50.770;6.110;2022-08-30T11:16:58;99857.41;;;27.33;31.85
57126;BME280;43000;50.770;6.110;2022-08-30T11:19:28;99859.25;;;27.09;32.51
57126;BME280;43000;50.770;6.110;2022-08-30T11:22:11;99859.38;;;27.16;33.09
57126;BME280;43000;50.770;6.110;2022-08-30T11:25:01;99857.22;;;27.11;32.63
57126;BME280;43000;50.770;6.110;2022-08-30T11:27:43;99857.50;;;27.16;33.77
57126;BME280;43000;50.770;6.110;2022-08-30T11:30:49;99867.16;;;27.19;32.86
57126;BME280;43000;50.770;6.110;2022-08-30T11:33:29;99870.81;;;27.03;33.72
57126;BME280;43000;50.770;6.110;2022-08-30T11:35:56;99859.19;;;26.94;33.86
57126;BME280;43000;50.770;6.110;2022-08-30T11:38:57;99852.34;;;27.07;33.26
57126;BME280;43000;50.770;6.110;2022-08-30T11:41:35;99847.53;;;26.94;33.23
57126;BME280;43000;50.770;6.110;2022-08-30T11:44:27;99854.22;;;27.06;32.82
57126;BME280;43000;50.770;6.110;2022-08-30T11:46:55;99843.75;;;27.26;32.87
57126;BME280;43000;50.770;6.110;2022-08-30T11:49:36;99847.38;;;27.18;32.34
57126;BME280;43000;50.770;6.110;2022-08-30T11:52:27;99842.25;;;27.24;32.70
57126;BME280;43000;50.770;6.110;2022-08-30T11:55:06;99843.84;;;27.10;32.18
57126;BME280;43000;50.770;6.110;2022-08-30T11:57:49;99846.75;;;27.08;32.38
57126;BME280;43000;50.770;6.110;2022-08-30T12:00:28;99841.88;;;27.04;32.45
57126;BME280;43000;50.770;6.110;2022-08-30T12:02:57;99834.91;;;27.09;32.13
57126;BME280;43000;50.770;6.110;2022-08-30T12:05:54;99841.25;;;27.25;31.83
57126;BME280;43000;50.770;6.110;2022-08-30T12:08:46;99836.09;;;27.07;31.78
57126;BME280;43000;50.770;6.110;2022-08-30T12:14:50;99838.72;;;27.00;31.87
57126;BME280;43000;50.770;6.110;2022-08-30T12:17:32;99831.44;;;27.01;32.08
57126;BME280;43000;50.770;6.110;2022-08-30T12:20:39;99834.81;;;27.03;31.72
57126;BME280;43000;50.770;6.110;2022-08-30T12:23:17;99833.84;;;27.18;31.52
57126;BME280;43000;50.770;6.110;2022-08-30T12:25:44;99831.59;;;27.22;31.39
57126;BME280;43000;50.770;6.110;2022-08-30T12:28:15;99819.31;;;27.34;31.24
57126;BME280;43000;50.770;6.110;2022-08-30T12:30:43;99824.53;;;27.21;31.91
57126;BME280;43000;50.770;6.110;2022-08-30T12:33:12;99821.59;;;26.99;31.68
57126;BME280;43000;50.770;6.110;2022-08-30T12:35:41;99819.22;;;26.82;31.56
57126;BME280;43000;50.770;6.110;2022-08-30T12:38:13;99820.25;;;26.81;31.60
57126;BME280;43000;50.770;6.110;2022-08-30T12:40:48;99816.69;;;27.03;31.59
57126;BME280;43000;50.770;6.110;2022-08-30T12:43:23;99821.91;;;27.05;31.55
57126;BME280;43000;50.770;6.110;2022-08-30T12:45:54;99818.81;;;26.93;32.07
57126;BME280;43000;50.770;6.110;2022-08-30T12:48:23;99817.38;;;27.05;31.49
57126;BME280;43000;50.770;6.110;2022-08-30T12:50:53;99817.44;;;27.20;31.32
57126;BME280;43000;50.770;6.110;2022-08-30T12:53:23;99815.38;;;27.22;31.02
57126;BME280;43000;50.770;6.110;2022-08-30T12:55:55;99813.38;;;27.16;31.10
57126;BME280;43000;50.770;6.110;2022-08-30T12:58:42;99812.25;;;27.10;31.08
57126;BME280;43000;50.770;6.110;2022-08-30T13:01:17;99807.53;;;27.04;31.33
57126;BME280;43000;50.770;6.110;2022-08-30T13:03:54;99800.91;;;27.07;31.46
57126;BME280;43000;50.770;6.110;2022-08-30T13:06:37;99800.75;;;27.08;31.20
57126;BME280;43000;50.770;6.110;2022-08-30T13:09:04;99788.50;;;27.21;31.08
57126;BME280;43000;50.770;6.110;2022-08-30T13:11:30;99797.63;;;27.19;31.13
57126;BME280;43000;50.770;6.110;2022-08-30T13:14:18;99789.84;;;27.16;30.85
57126;BME280;43000;50.770;6.110;2022-08-30T13:16:47;99783.13;;;27.12;31.17
57126;BME280;43000;50.770;6.110;2022-08-30T13:19:26;99782.72;;;27.24;31.02
57126;BME280;43000;50.770;6.110;2022-08-30T13:21:57;99786.91;;;27.26;31.02